Terminal Aerodrome Forecast
Issued by NWS Shreveport, LA

Home | Current Version | Previous Version | Text Only | Print | Product List | Glossary On
Versions: 1 2 3 4 5 6 7 8 9 10 11 12 13 14 15 16 17 18 19 20 21 22 23
000
FTUS44 KSHV 292347
TAFSHV
TAF
KSHV 292347Z 3000/3024 09007KT P6SM VCTS SCT015 BKN035CB OVC120
      TEMPO 3000/3001 6SM -TSRA BR BKN015 OVC035CB
     FM300200 VRB15G25KT 4SM TSRA BR BKN015 OVC035CB
     FM300600 17015G25KT 4SM -TSRA BR OVC015CB
     FM301700 18012KT P6SM VCTS OVC025CB=

USA.gov is the U.S. government's official web portal to all federal, state and local government web resources and services.